Redhaw, Ohio
Current Conditions -  °F | °C
As of 4:56 PM on Sunday 21 Dec 2014 (Local Time) from KBJJ Reporting Station
Haze Haze  
Wind Chill: 23°   Ceiling: 2000
Heat Index: 29°   Visibility: 6mi
Dew Point: 22°   Wind: 6mph
Humidity: 75%   Direction: 150°SSE
Pressure: 30.24"   Gusts: NA
Location:  40.9196°N, 82.2006°W
Report Text: KBJJ 212156Z AUTO 15005KT 6SM HZ OVC020 M02/M06 A3024 RMK AO2 SLP253 T10171056 TSNO
Loading
Personal Weather Stations






























Interactive Weather Map New forecast layout! Learn more

10-Day Weather Forecast

Advertisements
Track Severe Weather on mobile